sensor_id;sensor_type;location;lat;lon;timestamp;temperature;humidity
9265;DHT22;4669;49.594;10.958;2024-03-02T05:30:33;6.70;99.90
9265;DHT22;4669;49.594;10.958;2024-03-02T05:35:35;6.70;99.90
9265;DHT22;4669;49.594;10.958;2024-03-02T05:40:37;6.70;99.90
9265;DHT22;4669;49.594;10.958;2024-03-02T05:45:41;6.70;99.90
9265;DHT22;4669;49.594;10.958;2024-03-02T05:50:43;6.70;99.90
9265;DHT22;4669;49.594;10.958;2024-03-02T05:55:45;6.70;99.90
9265;DHT22;4669;49.594;10.958;2024-03-02T06:00:49;6.70;99.90
9265;DHT22;4669;49.594;10.958;2024-03-02T06:05:51;6.60;99.90
9265;DHT22;4669;49.594;10.958;2024-03-02T06:10:53;6.60;99.90
9265;DHT22;4669;49.594;10.958;2024-03-02T06:15:56;6.50;99.90
9265;DHT22;4669;49.594;10.958;2024-03-02T06:20:58;6.50;99.90
9265;DHT22;4669;49.594;10.958;2024-03-02T06:26:01;6.50;99.90
9265;DHT22;4669;49.594;10.958;2024-03-02T06:31:05;6.50;99.90
9265;DHT22;4669;49.594;10.958;2024-03-02T06:36:07;6.50;99.90
9265;DHT22;4669;49.594;10.958;2024-03-02T06:41:10;6.50;99.90
9265;DHT22;4669;49.594;10.958;2024-03-02T06:46:14;6.70;99.90
9265;DHT22;4669;49.594;10.958;2024-03-02T06:51:16;6.80;99.90
9265;DHT22;4669;49.594;10.958;2024-03-02T06:56:18;6.80;99.90
9265;DHT22;4669;49.594;10.958;2024-03-02T07:01:21;6.80;99.90
9265;DHT22;4669;49.594;10.958;2024-03-02T07:06:23;6.80;99.90
9265;DHT22;4669;49.594;10.958;2024-03-02T07:11:26;6.80;99.90
9265;DHT22;4669;49.594;10.958;2024-03-02T07:16:29;6.90;99.90
9265;DHT22;4669;49.594;10.958;2024-03-02T07:21:33;6.90;99.90
9265;DHT22;4669;49.594;10.958;2024-03-02T07:26:35;6.90;99.90
9265;DHT22;4669;49.594;10.958;2024-03-02T07:31:39;7.00;99.90
9265;DHT22;4669;49.594;10.958;2024-03-02T07:36:41;7.00;99.90
9265;DHT22;4669;49.594;10.958;2024-03-02T07:41:43;7.10;99.90
9265;DHT22;4669;49.594;10.958;2024-03-02T07:46:48;7.20;99.90
9265;DHT22;4669;49.594;10.958;2024-03-02T07:51:51;7.30;99.90
9265;DHT22;4669;49.594;10.958;2024-03-02T07:56:53;7.40;99.90
9265;DHT22;4669;49.594;10.958;2024-03-02T08:01:56;7.50;99.90
9265;DHT22;4669;49.594;10.958;2024-03-02T08:06:59;7.60;99.90
9265;DHT22;4669;49.594;10.958;2024-03-02T08:12:01;7.70;99.90
9265;DHT22;4669;49.594;10.958;2024-03-02T08:17:04;7.80;99.90
9265;DHT22;4669;49.594;10.958;2024-03-02T08:22:10;7.90;99.90
9265;DHT22;4669;49.594;10.958;2024-03-02T08:27:12;7.90;99.90
9265;DHT22;4669;49.594;10.958;2024-03-02T08:32:17;7.90;99.90
9265;DHT22;4669;49.594;10.958;2024-03-02T08:37:19;8.00;99.90
9265;DHT22;4669;49.594;10.958;2024-03-02T08:42:21;8.10;99.90
9265;DHT22;4669;49.594;10.958;2024-03-02T08:47:25;8.10;99.90
9265;DHT22;4669;49.594;10.958;2024-03-02T08:52:27;8.30;99.90
9265;DHT22;4669;49.594;10.958;2024-03-02T08:57:29;8.30;99.90
9265;DHT22;4669;49.594;10.958;2024-03-02T09:02:33;8.40;99.90
9265;DHT22;4669;49.594;10.958;2024-03-02T09:07:36;8.50;99.90
9265;DHT22;4669;49.594;10.958;2024-03-02T09:12:39;8.70;99.90
9265;DHT22;4669;49.594;10.958;2024-03-02T09:17:43;8.80;99.90
9265;DHT22;4669;49.594;10.958;2024-03-02T09:22:45;8.80;99.90
9265;DHT22;4669;49.594;10.958;2024-03-02T09:27:48;8.90;99.90
9265;DHT22;4669;49.594;10.958;2024-03-02T09:32:51;9.00;99.90
9265;DHT22;4669;49.594;10.958;2024-03-02T09:37:53;9.10;99.90
9265;DHT22;4669;49.594;10.958;2024-03-02T09:42:56;9.20;99.90
9265;DHT22;4669;49.594;10.958;2024-03-02T09:47:59;9.20;99.90
9265;DHT22;4669;49.594;10.958;2024-03-02T09:53:02;9.30;99.90
9265;DHT22;4669;49.594;10.958;2024-03-02T09:58:04;9.40;99.90
9265;DHT22;4669;49.594;10.958;2024-03-02T10:03:11;9.40;99.90
9265;DHT22;4669;49.594;10.958;2024-03-02T10:08:13;9.60;99.90
9265;DHT22;4669;49.594;10.958;2024-03-02T10:13:16;9.60;99.90
9265;DHT22;4669;49.594;10.958;2024-03-02T10:18:26;9.60;99.90
9265;DHT22;4669;49.594;10.958;2024-03-02T10:23:29;9.70;99.90
9265;DHT22;4669;49.594;10.958;2024-03-02T10:28:32;9.70;99.90
9265;DHT22;4669;49.594;10.958;2024-03-02T10:33:35;9.80;99.90
9265;DHT22;4669;49.594;10.958;2024-03-02T10:38:37;9.90;99.90
9265;DHT22;4669;49.594;10.958;2024-03-02T10:43:43;10.00;99.90
9265;DHT22;4669;49.594;10.958;2024-03-02T10:48:46;10.10;99.90
9265;DHT22;4669;49.594;10.958;2024-03-02T10:53:50;10.20;99.90
9265;DHT22;4669;49.594;10.958;2024-03-02T10:58:57;10.20;99.90
9265;DHT22;4669;49.594;10.958;2024-03-02T11:04:09;10.30;99.90
9265;DHT22;4669;49.594;10.958;2024-03-02T11:09:12;10.40;99.90
9265;DHT22;4669;49.594;10.958;2024-03-02T11:14:17;10.40;99.90
9265;DHT22;4669;49.594;10.958;2024-03-02T11:19:25;10.60;99.90
9265;DHT22;4669;49.594;10.958;2024-03-02T11:24:33;10.70;99.90
9265;DHT22;4669;49.594;10.958;2024-03-02T11:29:46;10.90;99.90
9265;DHT22;4669;49.594;10.958;2024-03-02T11:34:50;11.10;99.90
9265;DHT22;4669;49.594;10.958;2024-03-02T11:39:52;11.00;99.90
9265;DHT22;4669;49.594;10.958;2024-03-02T11:44:56;11.10;99.90
9265;DHT22;4669;49.594;10.958;2024-03-02T11:50:00;11.20;99.90
9265;DHT22;4669;49.594;10.958;2024-03-02T11:55:03;11.20;99.90
9265;DHT22;4669;49.594;10.958;2024-03-02T12:00:17;11.40;99.90
9265;DHT22;4669;49.594;10.958;2024-03-02T12:05:21;11.40;99.90
9265;DHT22;4669;49.594;10.958;2024-03-02T12:10:23;11.40;99.90
9265;DHT22;4669;49.594;10.958;2024-03-02T12:15:26;11.50;99.90
9265;DHT22;4669;49.594;10.958;2024-03-02T12:20:31;11.70;99.90
9265;DHT22;4669;49.594;10.958;2024-03-02T12:25:34;11.80;99.90
9265;DHT22;4669;49.594;10.958;2024-03-02T12:30:36;11.90;99.90
9265;DHT22;4669;49.594;10.958;2024-03-02T12:35:40;11.90;99.90
9265;DHT22;4669;49.594;10.958;2024-03-02T12:40:43;12.00;99.90
9265;DHT22;4669;49.594;10.958;2024-03-02T12:45:45;12.40;99.90
9265;DHT22;4669;49.594;10.958;2024-03-02T12:50:49;12.70;99.90
9265;DHT22;4669;49.594;10.958;2024-03-02T12:55:51;12.80;99.90
9265;DHT22;4669;49.594;10.958;2024-03-02T13:01:05;12.60;99.90
9265;DHT22;4669;49.594;10.958;2024-03-02T13:06:09;12.50;99.90
9265;DHT22;4669;49.594;10.958;2024-03-02T13:11:12;12.50;99.90
9265;DHT22;4669;49.594;10.958;2024-03-02T13:16:14;12.60;99.90
9265;DHT22;4669;49.594;10.958;2024-03-02T13:21:18;12.70;99.90
9265;DHT22;4669;49.594;10.958;2024-03-02T13:26:20;12.70;99.90
9265;DHT22;4669;49.594;10.958;2024-03-02T13:31:22;12.70;99.90
9265;DHT22;4669;49.594;10.958;2024-03-02T13:36:26;12.70;99.90
9265;DHT22;4669;49.594;10.958;2024-03-02T13:41:28;12.70;99.90
9265;DHT22;4669;49.594;10.958;2024-03-02T13:46:30;12.80;99.90
9265;DHT22;4669;49.594;10.958;2024-03-02T13:51:33;12.90;99.90
9265;DHT22;4669;49.594;10.958;2024-03-02T13:56:35;12.90;99.90
9265;DHT22;4669;49.594;10.958;2024-03-02T14:01:39;12.80;99.90
9265;DHT22;4669;49.594;10.958;2024-03-02T14:06:44;12.70;99.90
9265;DHT22;4669;49.594;10.958;2024-03-02T14:11:47;12.70;99.90
9265;DHT22;4669;49.594;10.958;2024-03-02T14:16:50;12.80;99.90
9265;DHT22;4669;49.594;10.958;2024-03-02T14:21:54;13.00;99.90
9265;DHT22;4669;49.594;10.958;2024-03-02T14:26:57;13.20;99.90
9265;DHT22;4669;49.594;10.958;2024-03-02T14:32:02;13.50;99.90
9265;DHT22;4669;49.594;10.958;2024-03-02T14:37:06;13.60;99.90
9265;DHT22;4669;49.594;10.958;2024-03-02T14:42:08;13.70;99.90
9265;DHT22;4669;49.594;10.958;2024-03-02T14:47:10;13.90;99.90
9265;DHT22;4669;49.594;10.958;2024-03-02T14:52:13;13.90;99.90
9265;DHT22;4669;49.594;10.958;2024-03-02T14:57:16;13.90;99.90
9265;DHT22;4669;49.594;10.958;2024-03-02T15:02:18;14.00;99.90
9265;DHT22;4669;49.594;10.958;2024-03-02T15:07:21;14.00;99.90
9265;DHT22;4669;49.594;10.958;2024-03-02T15:12:24;14.20;99.90
9265;DHT22;4669;49.594;10.958;2024-03-02T15:17:26;14.20;99.90
9265;DHT22;4669;49.594;10.958;2024-03-02T15:22:29;14.20;99.90
9265;DHT22;4669;49.594;10.958;2024-03-02T15:27:31;14.10;99.90
9265;DHT22;4669;49.594;10.958;2024-03-02T15:32:34;14.00;99.90
9265;DHT22;4669;49.594;10.958;2024-03-02T15:37:38;13.80;99.90
9265;DHT22;4669;49.594;10.958;2024-03-02T15:42:40;13.70;99.90
9265;DHT22;4669;49.594;10.958;2024-03-02T15:47:43;13.50;99.90
9265;DHT22;4669;49.594;10.958;2024-03-02T15:52:46;13.20;99.90
9265;DHT22;4669;49.594;10.958;2024-03-02T15:57:48;12.80;99.90
9265;DHT22;4669;49.594;10.958;2024-03-02T16:02:50;12.60;99.90
9265;DHT22;4669;49.594;10.958;2024-03-02T16:07:54;12.30;99.90
9265;DHT22;4669;49.594;10.958;2024-03-02T16:12:56;12.10;99.90
9265;DHT22;4669;49.594;10.958;2024-03-02T16:18:00;11.80;99.90
9265;DHT22;4669;49.594;10.958;2024-03-02T16:23:04;11.60;99.90
9265;DHT22;4669;49.594;10.958;2024-03-02T16:28:06;11.40;99.90
9265;DHT22;4669;49.594;10.958;2024-03-02T16:33:09;11.20;99.90
9265;DHT22;4669;49.594;10.958;2024-03-02T16:38:12;11.10;99.90
9265;DHT22;4669;49.594;10.958;2024-03-02T16:43:15;10.90;99.90
9265;DHT22;4669;49.594;10.958;2024-03-02T16:48:17;10.80;99.90
9265;DHT22;4669;49.594;10.958;2024-03-02T16:53:21;10.70;99.90
9265;DHT22;4669;49.594;10.958;2024-03-02T16:58:23;10.50;99.90
9265;DHT22;4669;49.594;10.958;2024-03-02T17:03:25;10.40;99.90
9265;DHT22;4669;49.594;10.958;2024-03-02T17:08:29;10.30;99.90
9265;DHT22;4669;49.594;10.958;2024-03-02T17:13:33;10.20;99.90
9265;DHT22;4669;49.594;10.958;2024-03-02T17:18:35;10.20;99.90
9265;DHT22;4669;49.594;10.958;2024-03-02T17:23:39;10.20;99.90
9265;DHT22;4669;49.594;10.958;2024-03-02T17:28:41;10.20;99.90
9265;DHT22;4669;49.594;10.958;2024-03-02T17:33:43;10.10;99.90
9265;DHT22;4669;49.594;10.958;2024-03-02T17:38:46;10.00;99.90
9265;DHT22;4669;49.594;10.958;2024-03-02T17:43:48;10.00;99.90
9265;DHT22;4669;49.594;10.958;2024-03-02T17:48:50;10.00;99.90
9265;DHT22;4669;49.594;10.958;2024-03-02T17:53:53;9.90;99.90
9265;DHT22;4669;49.594;10.958;2024-03-02T17:58:56;9.90;99.90
9265;DHT22;4669;49.594;10.958;2024-03-02T18:03:58;9.90;99.90
9265;DHT22;4669;49.594;10.958;2024-03-02T18:09:01;9.90;99.90
9265;DHT22;4669;49.594;10.958;2024-03-02T18:14:04;9.80;99.90
9265;DHT22;4669;49.594;10.958;2024-03-02T18:19:06;9.80;99.90
9265;DHT22;4669;49.594;10.958;2024-03-02T18:24:09;9.80;99.90
9265;DHT22;4669;49.594;10.958;2024-03-02T18:29:11;9.70;99.90
9265;DHT22;4669;49.594;10.958;2024-03-02T18:34:14;9.70;99.90
9265;DHT22;4669;49.594;10.958;2024-03-02T18:39:18;9.60;99.90
9265;DHT22;4669;49.594;10.958;2024-03-02T18:44:20;9.60;99.90
9265;DHT22;4669;49.594;10.958;2024-03-02T18:49:22;9.60;99.90
9265;DHT22;4669;49.594;10.958;2024-03-02T18:54:26;9.50;99.90
9265;DHT22;4669;49.594;10.958;2024-03-02T18:59:28;9.50;99.90
9265;DHT22;4669;49.594;10.958;2024-03-02T19:04:31;9.50;99.90
9265;DHT22;4669;49.594;10.958;2024-03-02T19:09:35;9.50;99.90
9265;DHT22;4669;49.594;10.958;2024-03-02T19:14:37;9.40;99.90
9265;DHT22;4669;49.594;10.958;2024-03-02T19:19:39;9.40;99.90
9265;DHT22;4669;49.594;10.958;2024-03-02T19:24:42;9.30;99.90
9265;DHT22;4669;49.594;10.958;2024-03-02T19:29:45;9.20;99.90
9265;DHT22;4669;49.594;10.958;2024-03-02T19:34:47;9.20;99.90
9265;DHT22;4669;49.594;10.958;2024-03-02T19:39:50;9.20;99.90
9265;DHT22;4669;49.594;10.958;2024-03-02T19:44:52;9.20;99.90
9265;DHT22;4669;49.594;10.958;2024-03-02T19:49:54;9.10;99.90
9265;DHT22;4669;49.594;10.958;2024-03-02T19:54:57;9.10;99.90
9265;DHT22;4669;49.594;10.958;2024-03-02T19:59:59;9.10;99.90
9265;DHT22;4669;49.594;10.958;2024-03-02T20:05:01;9.10;99.90
9265;DHT22;4669;49.594;10.958;2024-03-02T20:10:06;9.10;99.90
9265;DHT22;4669;49.594;10.958;2024-03-02T20:15:10;9.10;99.90
9265;DHT22;4669;49.594;10.958;2024-03-02T20:20:14;9.00;99.90
9265;DHT22;4669;49.594;10.958;2024-03-02T20:25:17;9.00;99.90
9265;DHT22;4669;49.594;10.958;2024-03-02T20:30:19;9.00;99.90
9265;DHT22;4669;49.594;10.958;2024-03-02T20:35:22;9.00;99.90
9265;DHT22;4669;49.594;10.958;2024-03-02T20:40:25;9.00;99.90
9265;DHT22;4669;49.594;10.958;2024-03-02T20:45:28;9.00;99.90
9265;DHT22;4669;49.594;10.958;2024-03-02T20:50:31;8.90;99.90
9265;DHT22;4669;49.594;10.958;2024-03-02T20:55:34;8.90;99.90
9265;DHT22;4669;49.594;10.958;2024-03-02T21:00:38;8.90;99.90
9265;DHT22;4669;49.594;10.958;2024-03-02T21:05:40;8.80;99.90
9265;DHT22;4669;49.594;10.958;2024-03-02T21:10:43;8.80;99.90
9265;DHT22;4669;49.594;10.958;2024-03-02T21:15:45;8.80;99.90
9265;DHT22;4669;49.594;10.958;2024-03-02T21:20:47;8.70;99.90
9265;DHT22;4669;49.594;10.958;2024-03-02T21:25:51;8.70;99.90
9265;DHT22;4669;49.594;10.958;2024-03-02T21:30:53;8.70;99.90
9265;DHT22;4669;49.594;10.958;2024-03-02T21:35:55;8.70;99.90
9265;DHT22;4669;49.594;10.958;2024-03-02T21:40:58;8.60;99.90
9265;DHT22;4669;49.594;10.958;2024-03-02T21:46:00;8.70;99.90
9265;DHT22;4669;49.594;10.958;2024-03-02T21:51:03;8.70;99.90
9265;DHT22;4669;49.594;10.958;2024-03-02T21:56:06;8.60;99.90
9265;DHT22;4669;49.594;10.958;2024-03-02T22:01:11;8.60;99.90
9265;DHT22;4669;49.594;10.958;2024-03-02T22:06:13;8.60;99.90
9265;DHT22;4669;49.594;10.958;2024-03-02T22:11:17;8.50;99.90
9265;DHT22;4669;49.594;10.958;2024-03-02T22:16:19;8.50;99.90
9265;DHT22;4669;49.594;10.958;2024-03-02T22:21:24;8.60;99.90
9265;DHT22;4669;49.594;10.958;2024-03-02T22:26:27;8.60;99.90
9265;DHT22;4669;49.594;10.958;2024-03-02T22:31:29;8.60;99.90
9265;DHT22;4669;49.594;10.958;2024-03-02T22:36:32;8.60;99.90
9265;DHT22;4669;49.594;10.958;2024-03-02T22:41:35;8.60;99.90
9265;DHT22;4669;49.594;10.958;2024-03-02T22:46:37;8.50;99.90
9265;DHT22;4669;49.594;10.958;2024-03-02T22:51:39;8.50;99.90
9265;DHT22;4669;49.594;10.958;2024-03-02T22:56:42;8.40;99.90
